Time;durP1;ratioP1;P1;durP2;ratioP2;P2;SDS_P1;SDS_P2;PMS_P1;PMS_P2;Temp;Humidity;BMP_temperature;BMP_pressure;BME280_temperature;BME280_humidity;BME280_pressure;Samples;Min_cycle;Max_cycle;Signal;HPM_P1;HPM_P2
2023/04/06 00:01:21;;;;;;;;;;;4.20;99.90;;;;;;5111787;27;1290;-69
2023/04/06 00:03:47;;;;;;;;;;;4.20;99.90;;;;;;5111685;27;1426;-69
2023/04/06 00:06:12;;;;;;;;;;;4.20;99.90;;;;;;5108978;28;1959;-69
2023/04/06 00:08:38;;;;;;;;;;;4.10;99.90;;;;;;5110146;28;1295;-69
2023/04/06 00:11:03;;;;;;;;;;;4.10;99.90;;;;;;5110453;28;1065;-69
2023/04/06 00:13:29;;;;;;;;;;;4.10;99.90;;;;;;5097573;28;1170;-69
2023/04/06 00:15:55;;;;;;;;;;;4.10;99.90;;;;;;5111001;27;1257;-69
2023/04/06 00:18:21;;;;;;;;;;;4.00;99.90;;;;;;5109225;28;1211;-69
2023/04/06 00:20:46;;;;;;;;;;;4.00;99.90;;;;;;5116697;28;1293;-69
2023/04/06 00:23:12;;;;;;;;;;;3.90;99.90;;;;;;5130148;28;1160;-69
2023/04/06 00:25:38;;;;;;;;;;;4.20;99.90;;;;;;5114966;28;1051;-69
2023/04/06 00:28:03;;;;;;;;;;;4.00;99.90;;;;;;5109409;28;1910;-69
2023/04/06 00:30:29;;;;;;;;;;;4.30;99.90;;;;;;5091128;28;1152;-69
2023/04/06 00:32:55;;;;;;;;;;;4.10;99.90;;;;;;5090213;28;1116;-69
2023/04/06 00:35:21;;;;;;;;;;;3.90;99.90;;;;;;5120978;28;1150;-69
2023/04/06 00:37:47;;;;;;;;;;;3.90;99.90;;;;;;5091142;28;1100;-69
2023/04/06 00:40:13;;;;;;;;;;;3.80;99.90;;;;;;5090599;28;1112;-69
2023/04/06 00:42:40;;;;;;;;;;;3.90;99.90;;;;;;5095652;28;1128;-69
2023/04/06 00:45:06;;;;;;;;;;;3.80;99.90;;;;;;5108456;28;1647;-69
2023/04/06 00:47:32;;;;;;;;;;;3.70;99.90;;;;;;5109261;28;1925;-69
2023/04/06 00:49:58;;;;;;;;;;;3.70;99.90;;;;;;5109706;28;1068;-69
2023/04/06 00:52:24;;;;;;;;;;;3.70;99.90;;;;;;5087900;28;1122;-69
2023/04/06 00:54:50;;;;;;;;;;;3.70;99.90;;;;;;5110014;28;1162;-69
2023/04/06 00:57:17;;;;;;;;;;;3.60;99.90;;;;;;5094936;28;1108;-69
2023/04/06 00:59:46;;;;;;;;;;;3.60;99.90;;;;;;5093205;28;1537;-69
2023/04/06 01:02:12;;;;;;;;;;;3.60;99.90;;;;;;5096116;27;1272;-69
2023/04/06 01:04:45;;;;;;;;;;;3.60;99.90;;;;;;5149681;27;1096;-69
2023/04/06 01:07:20;;;;;;;;;;;3.50;99.90;;;;;;5078852;28;1981;-69
2023/04/06 01:10:02;;;;;;;;;;;3.50;99.90;;;;;;5091989;28;1185;-69
2023/04/06 01:12:30;;;;;;;;;;;3.50;99.90;;;;;;5094818;28;1113;-69
2023/04/06 01:14:56;;;;;;;;;;;3.40;99.90;;;;;;5093712;28;1121;-69
2023/04/06 01:17:23;;;;;;;;;;;3.50;99.90;;;;;;5094119;28;1237;-69
2023/04/06 01:19:53;;;;;;;;;;;3.40;99.90;;;;;;5094831;28;1101;-69
2023/04/06 01:22:25;;;;;;;;;;;3.30;99.90;;;;;;5093766;28;1088;-69
2023/04/06 01:24:56;;;;;;;;;;;3.30;99.90;;;;;;5094502;28;1104;-69
2023/04/06 01:27:29;;;;;;;;;;;3.20;99.90;;;;;;5096019;28;1973;-69
2023/04/06 01:29:59;;;;;;;;;;;3.10;99.90;;;;;;5112794;28;1116;-69
2023/04/06 01:32:36;;;;;;;;;;;3.00;99.90;;;;;;5094290;28;1129;-69
2023/04/06 01:35:02;;;;;;;;;;;2.80;99.90;;;;;;5090770;28;1168;-69
2023/04/06 01:37:32;;;;;;;;;;;2.60;99.90;;;;;;5119687;27;1093;-69
2023/04/06 01:40:00;;;;;;;;;;;2.50;99.90;;;;;;5093990;28;1260;-69
2023/04/06 01:42:38;;;;;;;;;;;2.30;99.90;;;;;;5093234;28;1101;-69
2023/04/06 01:45:06;;;;;;;;;;;2.20;99.90;;;;;;5089501;28;1640;-69
2023/04/06 01:47:32;;;;;;;;;;;2.10;99.90;;;;;;5076889;28;1910;-69
2023/04/06 01:49:58;;;;;;;;;;;2.10;99.90;;;;;;5093254;28;1135;-69
2023/04/06 01:52:24;;;;;;;;;;;2.00;99.90;;;;;;5094254;28;1171;-69
2023/04/06 01:54:52;;;;;;;;;;;2.00;99.90;;;;;;5104252;28;1165;-69
2023/04/06 01:57:30;;;;;;;;;;;1.80;99.90;;;;;;5093258;28;1145;-69
2023/04/06 02:00:05;;;;;;;;;;;1.80;99.90;;;;;;5076816;28;1140;-69
2023/04/06 02:02:50;;;;;;;;;;;1.70;99.90;;;;;;5092630;28;1244;-69
2023/04/06 02:05:21;;;;;;;;;;;1.50;99.90;;;;;;5093495;28;1374;-69
2023/04/06 02:07:47;;;;;;;;;;;1.30;99.90;;;;;;5093685;28;1961;-69
2023/04/06 02:10:19;;;;;;;;;;;1.20;99.90;;;;;;5092254;28;1109;-69
2023/04/06 02:12:44;;;;;;;;;;;1.00;99.90;;;;;;5093370;28;1169;-69
2023/04/06 02:15:15;;;;;;;;;;;1.00;99.90;;;;;;5093697;28;1066;-69
2023/04/06 02:17:42;;;;;;;;;;;0.90;99.90;;;;;;5111221;28;1135;-69
2023/04/06 02:20:09;;;;;;;;;;;0.90;99.90;;;;;;5099730;27;1142;-69
2023/04/06 02:22:35;;;;;;;;;;;0.90;99.90;;;;;;5113977;27;1123;-69
2023/04/06 02:25:01;;;;;;;;;;;0.80;99.90;;;;;;5112821;27;1108;-69
2023/04/06 02:27:26;;;;;;;;;;;0.90;99.90;;;;;;5131758;27;1913;-69
2023/04/06 02:29:52;;;;;;;;;;;0.90;99.90;;;;;;5114409;27;1161;-69
2023/04/06 02:32:19;;;;;;;;;;;0.90;99.90;;;;;;5092666;28;1132;-69
2023/04/06 02:34:46;;;;;;;;;;;0.90;99.90;;;;;;5075639;28;1670;-69
2023/04/06 02:37:12;;;;;;;;;;;0.90;99.90;;;;;;5093232;28;1193;-69
2023/04/06 02:39:38;;;;;;;;;;;1.00;99.90;;;;;;5097374;28;1100;-69
2023/04/06 02:42:08;;;;;;;;;;;0.90;99.90;;;;;;5092532;28;1105;-69
2023/04/06 02:44:34;;;;;;;;;;;0.80;99.90;;;;;;5092914;28;1554;-68
2023/04/06 02:47:01;;;;;;;;;;;0.70;99.90;;;;;;5077249;28;1918;-69
2023/04/06 02:49:26;;;;;;;;;;;0.80;99.90;;;;;;5092785;28;1048;-68
2023/04/06 02:51:55;;;;;;;;;;;0.70;99.90;;;;;;5092133;28;1120;-69
2023/04/06 02:54:25;;;;;;;;;;;0.70;99.90;;;;;;5092921;28;1104;-69
2023/04/06 02:56:51;;;;;;;;;;;0.70;99.90;;;;;;5110498;28;1241;-69
2023/04/06 02:59:17;;;;;;;;;;;0.70;99.90;;;;;;5092237;28;1116;-68
2023/04/06 03:01:53;;;;;;;;;;;0.70;99.90;;;;;;5092820;28;1244;-69
2023/04/06 03:04:19;;;;;;;;;;;0.70;99.90;;;;;;5112501;27;1304;-69
2023/04/06 03:06:46;;;;;;;;;;;0.80;99.90;;;;;;5091322;28;1983;-68
2023/04/06 03:09:21;;;;;;;;;;;0.80;99.90;;;;;;5092413;28;1124;-68
2023/04/06 03:11:47;;;;;;;;;;;0.80;99.90;;;;;;5110341;28;1151;-68
2023/04/06 03:14:13;;;;;;;;;;;0.70;99.90;;;;;;5100998;27;1162;-68
2023/04/06 03:16:38;;;;;;;;;;;0.60;99.90;;;;;;5075415;28;1038;-68
2023/04/06 03:19:04;;;;;;;;;;;0.50;99.90;;;;;;5093833;27;1109;-68
2023/04/06 03:21:33;;;;;;;;;;;0.40;99.90;;;;;;5089936;28;1124;-68
2023/04/06 03:23:59;;;;;;;;;;;0.30;99.90;;;;;;5092203;28;1195;-68
2023/04/06 03:26:26;;;;;;;;;;;0.30;99.90;;;;;;5074848;28;1978;-68
2023/04/06 03:28:51;;;;;;;;;;;0.20;99.90;;;;;;5109485;28;1116;-68
2023/04/06 03:31:20;;;;;;;;;;;0.40;99.90;;;;;;5100157;28;1188;-68
2023/04/06 03:33:54;;;;;;;;;;;0.30;99.90;;;;;;5086603;27;1152;-68
2023/04/06 03:36:25;;;;;;;;;;;0.10;99.90;;;;;;5134301;27;1154;-68
2023/04/06 03:38:53;;;;;;;;;;;0.10;99.90;;;;;;5091158;28;1188;-68
2023/04/06 03:41:19;;;;;;;;;;;0.10;99.90;;;;;;5091129;28;1085;-68
2023/04/06 03:43:54;;;;;;;;;;;0.30;99.90;;;;;;5075110;28;1260;-68
2023/04/06 03:46:19;;;;;;;;;;;0.50;99.90;;;;;;5109673;28;1949;-68
2023/04/06 03:48:48;;;;;;;;;;;0.30;99.90;;;;;;5090319;28;1161;-68
2023/04/06 03:51:15;;;;;;;;;;;0.40;99.90;;;;;;5091783;28;1132;-69
2023/04/06 03:53:41;;;;;;;;;;;0.40;99.90;;;;;;5110038;28;1145;-68
2023/04/06 03:56:06;;;;;;;;;;;0.60;99.90;;;;;;5108964;28;1146;-68
2023/04/06 03:58:32;;;;;;;;;;;0.40;99.90;;;;;;5109654;28;1204;-68
2023/04/06 04:00:58;;;;;;;;;;;0.40;99.90;;;;;;5091480;28;1287;-68
2023/04/06 04:03:25;;;;;;;;;;;0.60;99.90;;;;;;5119518;27;1113;-68
2023/04/06 04:05:51;;;;;;;;;;;0.70;99.90;;;;;;5123717;27;1432;-68
2023/04/06 04:08:18;;;;;;;;;;;0.30;99.90;;;;;;5091513;28;1918;-68
2023/04/06 04:10:43;;;;;;;;;;;0.20;99.90;;;;;;5090369;28;1144;-68
2023/04/06 04:13:09;;;;;;;;;;;0.20;99.90;;;;;;5091253;28;1130;-68
2023/04/06 04:15:35;;;;;;;;;;;0.00;99.90;;;;;;5098325;28;1245;-68
2023/04/06 04:18:01;;;;;;;;;;;0.00;99.90;;;;;;5090447;28;1136;-68
2023/04/06 04:20:28;;;;;;;;;;;0.60;99.90;;;;;;5091259;28;1129;-68
2023/04/06 04:22:55;;;;;;;;;;;0.10;99.90;;;;;;5091275;28;1140;-68
2023/04/06 04:25:21;;;;;;;;;;;0.00;99.90;;;;;;5091475;28;1161;-69
2023/04/06 04:27:48;;;;;;;;;;;0.20;99.90;;;;;;5091174;28;1992;-68
2023/04/06 04:30:15;;;;;;;;;;;0.40;99.90;;;;;;5091857;28;1124;-68
2023/04/06 04:32:41;;;;;;;;;;;0.10;99.90;;;;;;5094658;28;1148;-68
2023/04/06 04:35:09;;;;;;;;;;;0.30;99.90;;;;;;5078378;28;1152;-68
2023/04/06 04:37:38;;;;;;;;;;;0.10;99.90;;;;;;5113008;28;1166;-68
2023/04/06 04:40:04;;;;;;;;;;;0.50;99.90;;;;;;5095120;28;1152;-68
2023/04/06 04:42:37;;;;;;;;;;;0.20;99.90;;;;;;5094378;28;2011;-68
2023/04/06 04:45:05;;;;;;;;;;;0.10;99.90;;;;;;5094541;28;1286;-68
2023/04/06 04:47:36;;;;;;;;;;;0.20;99.90;;;;;;5094888;28;1973;-68
2023/04/06 04:50:02;;;;;;;;;;;0.30;99.90;;;;;;5095273;28;1249;-68
2023/04/06 04:52:28;;;;;;;;;;;0.40;99.90;;;;;;5083589;28;1113;-69
2023/04/06 04:55:01;;;;;;;;;;;0.40;99.90;;;;;;5099246;28;1318;-68
2023/04/06 04:57:28;;;;;;;;;;;0.50;99.90;;;;;;5100361;28;1100;-68
2023/04/06 04:59:54;;;;;;;;;;;0.50;99.90;;;;;;5107824;28;1158;-69
2023/04/06 05:02:19;;;;;;;;;;;0.50;99.90;;;;;;5114779;27;1233;-69
2023/04/06 05:04:59;;;;;;;;;;;0.40;99.90;;;;;;5113951;27;1164;-68
2023/04/06 05:07:26;;;;;;;;;;;0.40;99.90;;;;;;5093017;28;1910;-69
2023/04/06 05:09:54;;;;;;;;;;;0.40;99.90;;;;;;5077208;28;1254;-69
2023/04/06 05:12:22;;;;;;;;;;;0.30;99.90;;;;;;5093923;28;1242;-68
2023/04/06 05:14:59;;;;;;;;;;;0.10;99.90;;;;;;5095113;28;1409;-69
2023/04/06 05:17:25;;;;;;;;;;;0.10;99.90;;;;;;5089112;28;1062;-68
2023/04/06 05:19:51;;;;;;;;;;;0.10;99.90;;;;;;5112004;28;1112;-68
2023/04/06 05:22:22;;;;;;;;;;;0.10;99.90;;;;;;5111377;28;1132;-69
2023/04/06 05:24:56;;;;;;;;;;;0.10;99.90;;;;;;5076703;28;1052;-69
2023/04/06 05:27:22;;;;;;;;;;;0.20;99.90;;;;;;5139861;27;1982;-69
2023/04/06 05:29:48;;;;;;;;;;;0.30;99.90;;;;;;5128441;27;1092;-69
2023/04/06 05:32:15;;;;;;;;;;;0.30;99.90;;;;;;5094313;28;1641;-69
2023/04/06 05:34:40;;;;;;;;;;;0.30;99.90;;;;;;5111013;28;1105;-69
2023/04/06 05:37:06;;;;;;;;;;;0.40;99.90;;;;;;5094279;28;1059;-69
2023/04/06 05:39:32;;;;;;;;;;;0.30;99.90;;;;;;5112051;28;1194;-69
2023/04/06 05:42:03;;;;;;;;;;;0.50;99.90;;;;;;5093060;28;1101;-69
2023/04/06 05:44:40;;;;;;;;;;;0.50;99.90;;;;;;5111517;28;1247;-70
2023/04/06 05:47:10;;;;;;;;;;;0.70;99.90;;;;;;5093605;28;1989;-69
2023/04/06 05:49:38;;;;;;;;;;;0.80;99.90;;;;;;5092972;28;1008;-69
2023/04/06 05:52:08;;;;;;;;;;;0.90;99.90;;;;;;5095307;28;1417;-69
2023/04/06 05:54:35;;;;;;;;;;;1.10;99.90;;;;;;5095337;28;1155;-69
2023/04/06 05:57:02;;;;;;;;;;;1.20;99.90;;;;;;5094206;28;1055;-69
2023/04/06 05:59:30;;;;;;;;;;;1.30;99.90;;;;;;5111812;28;1088;-69
2023/04/06 06:01:55;;;;;;;;;;;1.40;99.90;;;;;;5093502;28;1317;-70
2023/04/06 06:04:22;;;;;;;;;;;1.40;99.90;;;;;;5127626;27;1192;-69
2023/04/06 06:06:51;;;;;;;;;;;1.40;99.90;;;;;;5093442;28;1906;-69
2023/04/06 06:09:21;;;;;;;;;;;1.50;99.90;;;;;;5092171;28;1273;-69
2023/04/06 06:12:09;;;;;;;;;;;1.60;99.90;;;;;;5129972;27;1372;-69
2023/04/06 06:14:35;;;;;;;;;;;1.70;99.90;;;;;;5113695;27;1096;-69
2023/04/06 06:17:01;;;;;;;;;;;1.70;99.90;;;;;;5112956;27;1174;-69
2023/04/06 06:19:27;;;;;;;;;;;1.80;99.90;;;;;;5135918;27;1229;-69
2023/04/06 06:21:57;;;;;;;;;;;1.90;99.90;;;;;;5127056;27;1088;-70
2023/04/06 06:24:22;;;;;;;;;;;2.00;99.90;;;;;;5099953;28;1247;-70
2023/04/06 06:26:48;;;;;;;;;;;2.10;99.90;;;;;;5099576;28;1902;-70
2023/04/06 06:29:16;;;;;;;;;;;2.20;99.90;;;;;;5117450;27;1335;-70
2023/04/06 06:31:42;;;;;;;;;;;2.30;99.90;;;;;;5110306;28;1116;-70
2023/04/06 06:34:08;;;;;;;;;;;2.40;99.90;;;;;;5093281;28;1167;-70
2023/04/06 06:36:36;;;;;;;;;;;2.70;99.90;;;;;;5095425;28;1161;-70
2023/04/06 06:39:05;;;;;;;;;;;2.90;99.90;;;;;;5075043;28;1095;-70
2023/04/06 06:41:30;;;;;;;;;;;3.00;99.90;;;;;;5092696;28;1419;-70
2023/04/06 06:43:57;;;;;;;;;;;3.30;99.90;;;;;;5094870;28;1355;-69
2023/04/06 06:46:23;;;;;;;;;;;3.50;99.90;;;;;;5116308;27;1914;-69
2023/04/06 06:48:48;;;;;;;;;;;3.80;99.90;;;;;;5113441;27;1219;-70
2023/04/06 06:51:14;;;;;;;;;;;4.00;99.90;;;;;;5128991;27;1198;-70
2023/04/06 06:53:40;;;;;;;;;;;4.20;99.90;;;;;;5109526;28;1170;-69
2023/04/06 06:56:06;;;;;;;;;;;4.30;99.90;;;;;;5093068;28;1300;-70
2023/04/06 06:58:31;;;;;;;;;;;4.50;99.90;;;;;;5075070;28;1156;-70
2023/04/06 07:00:59;;;;;;;;;;;4.60;99.90;;;;;;5092433;28;1221;-70
2023/04/06 07:03:26;;;;;;;;;;;4.60;99.90;;;;;;5098134;28;1238;-70
2023/04/06 07:05:53;;;;;;;;;;;4.70;99.90;;;;;;5094232;28;1338;-70
2023/04/06 07:08:20;;;;;;;;;;;5.10;99.90;;;;;;5091808;28;1909;-70
2023/04/06 07:10:46;;;;;;;;;;;5.20;99.90;;;;;;5113122;27;1307;-70
2023/04/06 07:13:18;;;;;;;;;;;5.30;99.90;;;;;;5108242;27;1107;-70
2023/04/06 07:15:43;;;;;;;;;;;5.50;99.90;;;;;;5110118;28;1146;-70
2023/04/06 07:18:09;;;;;;;;;;;5.70;99.90;;;;;;5110835;28;1171;-70
2023/04/06 07:20:36;;;;;;;;;;;5.90;99.90;;;;;;5092513;28;1187;-70
2023/04/06 07:23:02;;;;;;;;;;;6.10;99.90;;;;;;5134552;27;1004;-70
2023/04/06 07:25:29;;;;;;;;;;;6.30;99.90;;;;;;5092066;28;1179;-70
2023/04/06 07:27:55;;;;;;;;;;;6.40;99.90;;;;;;5109680;28;1972;-70
2023/04/06 07:30:21;;;;;;;;;;;6.60;99.90;;;;;;5094912;28;1350;-70
2023/04/06 07:32:48;;;;;;;;;;;6.70;99.90;;;;;;5096675;28;1294;-70
2023/04/06 07:35:14;;;;;;;;;;;6.80;99.90;;;;;;5091236;28;1132;-72
2023/04/06 07:37:42;;;;;;;;;;;7.00;99.90;;;;;;5091313;28;1029;-71
2023/04/06 07:40:08;;;;;;;;;;;7.10;99.90;;;;;;5124315;27;1203;-71
2023/04/06 07:42:34;;;;;;;;;;;7.20;99.90;;;;;;5095356;28;1683;-71
2023/04/06 07:45:01;;;;;;;;;;;7.40;99.90;;;;;;5091196;28;1721;-71
2023/04/06 07:47:26;;;;;;;;;;;7.50;99.90;;;;;;5105919;28;1906;-71
2023/04/06 07:49:55;;;;;;;;;;;7.60;99.90;;;;;;5107259;28;1156;-70
2023/04/06 07:52:21;;;;;;;;;;;7.80;99.90;;;;;;5091833;28;1095;-71
2023/04/06 07:54:49;;;;;;;;;;;7.90;99.90;;;;;;5109003;28;1222;-71
2023/04/06 07:57:14;;;;;;;;;;;8.10;99.90;;;;;;5111612;27;1243;-71
2023/04/06 07:59:40;;;;;;;;;;;8.20;99.90;;;;;;5116047;27;1286;-71
2023/04/06 08:02:06;;;;;;;;;;;8.30;99.90;;;;;;5116999;27;1242;-71
2023/04/06 08:04:31;;;;;;;;;;;8.40;99.90;;;;;;5108828;28;1304;-71
2023/04/06 08:06:57;;;;;;;;;;;8.50;99.90;;;;;;5091068;28;1989;-71
2023/04/06 08:09:23;;;;;;;;;;;8.60;99.90;;;;;;5108344;28;1141;-71
2023/04/06 08:11:48;;;;;;;;;;;8.80;99.90;;;;;;5133581;27;1202;-71
2023/04/06 08:14:15;;;;;;;;;;;8.90;99.90;;;;;;5108013;27;1112;-71
2023/04/06 08:16:41;;;;;;;;;;;9.00;99.90;;;;;;5103199;28;3582;-71
2023/04/06 08:19:09;;;;;;;;;;;9.10;99.90;;;;;;5108383;28;3460;-71
2023/04/06 08:21:35;;;;;;;;;;;9.30;99.90;;;;;;5108989;28;1227;-71
2023/04/06 08:24:01;;;;;;;;;;;9.40;99.90;;;;;;5126396;27;3475;-71
2023/04/06 08:26:27;;;;;;;;;;;9.50;99.90;;;;;;5100351;28;1961;-71
2023/04/06 08:28:53;;;;;;;;;;;9.70;99.80;;;;;;5091198;28;1180;-71
2023/04/06 08:31:19;;;;;;;;;;;9.80;99.70;;;;;;5102686;28;1016;-71
2023/04/06 08:33:45;;;;;;;;;;;9.90;99.40;;;;;;5124892;28;1198;-71
2023/04/06 08:36:12;;;;;;;;;;;10.00;99.40;;;;;;5108459;28;3800;-71
2023/04/06 08:38:38;;;;;;;;;;;10.10;98.30;;;;;;5108220;28;1108;-71
2023/04/06 08:41:10;;;;;;;;;;;10.30;97.60;;;;;;5108518;28;1286;-71
2023/04/06 08:43:41;;;;;;;;;;;10.30;97.30;;;;;;5107351;28;1338;-71
2023/04/06 08:46:07;;;;;;;;;;;10.40;97.00;;;;;;5108846;28;1164;-71
2023/04/06 08:48:34;;;;;;;;;;;10.50;97.00;;;;;;5108609;28;1974;-71
2023/04/06 08:51:01;;;;;;;;;;;10.70;97.20;;;;;;5108751;28;1093;-71
2023/04/06 08:53:26;;;;;;;;;;;10.80;96.90;;;;;;5104864;28;1172;-71
2023/04/06 08:55:52;;;;;;;;;;;11.00;95.80;;;;;;5108915;28;1264;-71
2023/04/06 08:58:18;;;;;;;;;;;11.10;94.90;;;;;;5108106;28;1090;-71
2023/04/06 09:00:44;;;;;;;;;;;11.30;94.20;;;;;;5108577;28;1004;-71
2023/04/06 09:03:12;;;;;;;;;;;11.40;93.60;;;;;;5108248;28;1145;-71
2023/04/06 09:05:38;;;;;;;;;;;11.40;93.60;;;;;;5102240;28;1483;-71
2023/04/06 09:08:04;;;;;;;;;;;11.50;93.20;;;;;;5107974;28;1976;-71
2023/04/06 09:10:29;;;;;;;;;;;11.70;92.10;;;;;;5108480;28;1327;-71
2023/04/06 09:13:05;;;;;;;;;;;11.80;91.80;;;;;;5116804;28;1180;-71
2023/04/06 09:15:30;;;;;;;;;;;11.90;91.20;;;;;;5126096;27;1146;-71
2023/04/06 09:17:56;;;;;;;;;;;12.00;90.20;;;;;;5097736;27;1233;-71
2023/04/06 09:20:25;;;;;;;;;;;12.10;91.00;;;;;;5117050;27;1163;-71
2023/04/06 09:22:51;;;;;;;;;;;12.30;90.10;;;;;;5112680;28;1057;-71
2023/04/06 09:25:19;;;;;;;;;;;12.50;89.20;;;;;;5093946;28;1171;-71
2023/04/06 09:27:45;;;;;;;;;;;12.60;88.90;;;;;;5109264;27;1926;-71
2023/04/06 09:30:13;;;;;;;;;;;12.80;88.20;;;;;;5114343;27;1246;-71
2023/04/06 09:32:45;;;;;;;;;;;13.00;85.00;;;;;;5121837;27;1219;-71
2023/04/06 09:35:11;;;;;;;;;;;13.10;82.80;;;;;;5131633;27;1116;-71
2023/04/06 09:37:36;;;;;;;;;;;13.20;83.50;;;;;;5121629;27;1244;-71
2023/04/06 09:40:03;;;;;;;;;;;13.40;81.90;;;;;;5111519;28;1123;-71
2023/04/06 09:42:29;;;;;;;;;;;13.50;80.60;;;;;;5105053;28;1104;-71
2023/04/06 09:44:55;;;;;;;;;;;13.70;80.80;;;;;;5110167;28;1588;-71
2023/04/06 09:47:22;;;;;;;;;;;13.90;80.50;;;;;;5111906;28;1937;-71
2023/04/06 09:49:50;;;;;;;;;;;14.00;76.80;;;;;;5109375;28;3600;-71
2023/04/06 09:52:17;;;;;;;;;;;14.20;79.00;;;;;;5110013;28;3491;-71
2023/04/06 09:54:43;;;;;;;;;;;14.40;76.70;;;;;;5103048;28;1108;-71
2023/04/06 09:57:18;;;;;;;;;;;14.60;74.40;;;;;;5111231;28;3510;-70
2023/04/06 09:59:48;;;;;;;;;;;14.60;72.00;;;;;;5106067;28;1176;-71
2023/04/06 10:02:35;;;;;;;;;;;14.70;73.40;;;;;;5111862;27;1168;-72
2023/04/06 10:05:05;;;;;;;;;;;14.80;72.70;;;;;;5096796;27;1128;-71
2023/04/06 10:07:31;;;;;;;;;;;15.00;70.00;;;;;;5093087;28;3448;-71
2023/04/06 10:09:58;;;;;;;;;;;15.30;71.00;;;;;;5119228;27;1204;-72
2023/04/06 10:12:24;;;;;;;;;;;15.50;69.90;;;;;;5127451;27;1178;-71
2023/04/06 10:14:51;;;;;;;;;;;;;;;;;;5110651;28;1254;-72
2023/04/06 10:17:16;;;;;;;;;;;16.10;66.60;;;;;;5111330;28;1155;-71
2023/04/06 10:19:52;;;;;;;;;;;16.40;66.90;;;;;;5111020;28;1132;-71
2023/04/06 10:22:24;;;;;;;;;;;16.80;65.00;;;;;;5112934;27;1268;-71
2023/04/06 10:24:50;;;;;;;;;;;;;;;;;;5111433;28;1211;-71
2023/04/06 10:27:15;;;;;;;;;;;17.70;92.20;;;;;;5112436;27;1910;-71
2023/04/06 10:29:43;;;;;;;;;;;18.10;88.20;;;;;;5109669;28;1098;-71
2023/04/06 10:32:08;;;;;;;;;;;17.30;84.60;;;;;;5092974;28;1121;-71
2023/04/06 10:34:35;;;;;;;;;;;17.00;74.40;;;;;;5111011;28;1116;-71
2023/04/06 10:37:01;;;;;;;;;;;;;;;;;;5090610;28;1196;-71
2023/04/06 10:39:29;;;;;;;;;;;;;;;;;;5094949;28;1405;-71
2023/04/06 10:41:55;;;;;;;;;;;;;;;;;;5111503;28;1124;-71
2023/04/06 10:44:21;;;;;;;;;;;;;;;;;;5107960;28;1384;-72
2023/04/06 10:46:47;;;;;;;;;;;;;;;;;;5110574;28;1906;-71
2023/04/06 10:49:13;;;;;;;;;;;;;;;;;;5111103;28;1163;-71
2023/04/06 10:51:40;;;;;;;;;;;;;;;;;;5110030;28;1096;-71
2023/04/06 10:54:06;;;;;;;;;;;;;;;;;;5125744;27;1136;-71
2023/04/06 10:56:34;;;;;;;;;;;;;;;;;;5110825;28;962;-71
2023/04/06 10:59:00;;;;;;;;;;;;;;;;;;5109975;28;1085;-71
2023/04/06 11:01:27;;;;;;;;;;;;;;;;;;5110392;28;1276;-71
2023/04/06 11:03:53;;;;;;;;;;;;;;;;;;5110490;28;1409;-71
2023/04/06 11:06:19;;;;;;;;;;;;;;;;;;5109893;28;1623;-71
2023/04/06 11:08:45;;;;;;;;;;;;;;;;;;5110725;28;1906;-71
2023/04/06 11:11:15;;;;;;;;;;;;;;;;;;5109442;28;1189;-71
2023/04/06 11:13:41;;;;;;;;;;;14.90;91.00;;;;;;5116840;27;1147;-71
2023/04/06 11:16:11;;;;;;;;;;;15.20;79.90;;;;;;5108813;27;3551;-71
2023/04/06 11:18:37;;;;;;;;;;;14.70;64.00;;;;;;5125638;27;1293;-71
2023/04/06 11:21:03;;;;;;;;;;;14.50;64.10;;;;;;5111316;27;1251;-71
2023/04/06 11:23:28;;;;;;;;;;;14.30;65.10;;;;;;5110520;28;1269;-71
2023/04/06 11:25:54;;;;;;;;;;;14.40;70.40;;;;;;5109645;28;1092;-71
2023/04/06 11:28:20;;;;;;;;;;;14.50;69.70;;;;;;5109562;28;1906;-71
2023/04/06 11:30:46;;;;;;;;;;;14.40;71.10;;;;;;5110038;28;1167;-71
2023/04/06 11:33:19;;;;;;;;;;;14.50;70.40;;;;;;5109669;28;1184;-71
2023/04/06 11:35:46;;;;;;;;;;;14.50;71.10;;;;;;5110076;28;1085;-71
2023/04/06 11:38:11;;;;;;;;;;;14.50;71.30;;;;;;5101681;28;1185;-71
2023/04/06 11:40:37;;;;;;;;;;;14.60;70.70;;;;;;5108973;28;1116;-71
2023/04/06 11:43:03;;;;;;;;;;;14.50;71.50;;;;;;5102629;28;3695;-71
2023/04/06 11:45:39;;;;;;;;;;;14.20;75.10;;;;;;5109566;28;3737;-71
2023/04/06 11:48:04;;;;;;;;;;;13.90;65.60;;;;;;5108969;28;3575;-71
2023/04/06 11:50:33;;;;;;;;;;;13.90;67.00;;;;;;5109034;28;1131;-71
2023/04/06 11:53:00;;;;;;;;;;;14.10;65.30;;;;;;5110078;28;1105;-71
2023/04/06 11:55:26;;;;;;;;;;;14.10;67.50;;;;;;5102635;28;1120;-71
2023/04/06 11:57:52;;;;;;;;;;;14.10;65.10;;;;;;5109170;28;1105;-71
2023/04/06 12:00:18;;;;;;;;;;;14.00;65.70;;;;;;5109020;28;954;-71
2023/04/06 12:02:46;;;;;;;;;;;14.40;64.60;;;;;;5114500;27;1175;-71
2023/04/06 12:05:11;;;;;;;;;;;14.80;64.60;;;;;;5089557;28;1397;-71
2023/04/06 12:07:37;;;;;;;;;;;15.30;65.20;;;;;;5088436;28;1953;-71
2023/04/06 12:10:03;;;;;;;;;;;15.50;63.20;;;;;;5088305;28;1816;-71
2023/04/06 12:12:29;;;;;;;;;;;15.80;63.30;;;;;;5086756;28;1948;-71
2023/04/06 12:14:56;;;;;;;;;;;16.20;61.70;;;;;;5088260;28;1251;-71
2023/04/06 12:17:21;;;;;;;;;;;16.90;66.00;;;;;;5090566;28;1282;-71
2023/04/06 12:19:47;;;;;;;;;;;16.70;69.80;;;;;;5100470;28;1180;-71
2023/04/06 12:22:13;;;;;;;;;;;16.80;69.10;;;;;;5096478;28;1131;-71
2023/04/06 12:24:38;;;;;;;;;;;16.70;68.10;;;;;;5089375;28;1120;-71
2023/04/06 12:27:04;;;;;;;;;;;16.60;68.40;;;;;;5088947;28;1981;-71
2023/04/06 12:29:30;;;;;;;;;;;;;;;;;;5088424;28;1187;-71
2023/04/06 12:31:56;;;;;;;;;;;;;;;;;;5088635;28;1133;-71
2023/04/06 12:34:22;;;;;;;;;;;;;;;;;;5089004;28;1104;-71
2023/04/06 12:36:48;;;;;;;;;;;;;;;;;;5087632;28;1115;-71
2023/04/06 12:39:16;;;;;;;;;;;;;;;;;;5089753;28;1136;-71
2023/04/06 12:41:42;;;;;;;;;;;;;;;;;;5086743;28;3592;-71
2023/04/06 12:44:08;;;;;;;;;;;;;;;;;;5080000;28;1577;-71
2023/04/06 12:46:34;;;;;;;;;;;;;;;;;;5087046;28;3497;-71
2023/04/06 12:49:03;;;;;;;;;;;;;;;;;;5087069;28;1263;-71
2023/04/06 12:51:31;;;;;;;;;;;;;;;;;;5088934;28;1070;-71
2023/04/06 12:53:57;;;;;;;;;;;;;;;;;;5091224;28;1274;-71
2023/04/06 12:56:23;;;;;;;;;;;18.20;87.80;;;;;;5092013;28;1229;-71
2023/04/06 12:58:50;;;;;;;;;;;;;;;;;;5092431;28;1120;-71
2023/04/06 13:01:16;;;;;;;;;;;;;;;;;;5092443;28;1222;-71
2023/04/06 13:03:42;;;;;;;;;;;;;;;;;;5109828;27;1331;-70
2023/04/06 13:06:08;;;;;;;;;;;;;;;;;;5122968;27;1291;-71
2023/04/06 13:08:34;;;;;;;;;;;;;;;;;;5112729;28;1906;-71
2023/04/06 13:11:00;;;;;;;;;;;17.00;71.80;;;;;;5111507;28;1136;-71
2023/04/06 13:13:27;;;;;;;;;;;17.00;74.80;;;;;;5112478;28;1227;-71
2023/04/06 13:15:53;;;;;;;;;;;17.30;77.20;;;;;;5115780;27;1290;-71
2023/04/06 13:18:19;;;;;;;;;;;17.00;77.30;;;;;;5113044;27;1214;-71
2023/04/06 13:20:46;;;;;;;;;;;16.80;80.10;;;;;;5096196;28;1270;-71
2023/04/06 13:23:12;;;;;;;;;;;16.40;68.80;;;;;;5106667;28;3527;-71
2023/04/06 13:25:37;;;;;;;;;;;16.00;70.40;;;;;;5096222;28;1105;-71
2023/04/06 13:28:03;;;;;;;;;;;15.40;60.30;;;;;;5112353;27;3451;-71
2023/04/06 13:30:29;;;;;;;;;;;15.50;61.50;;;;;;5112675;28;1139;-70
2023/04/06 13:32:54;;;;;;;;;;;15.40;61.80;;;;;;5110887;28;1159;-70
2023/04/06 13:35:20;;;;;;;;;;;15.10;64.00;;;;;;5112145;28;1120;-70
2023/04/06 13:37:46;;;;;;;;;;;15.20;62.40;;;;;;5113500;27;1123;-70
2023/04/06 13:40:12;;;;;;;;;;;15.10;63.50;;;;;;5111349;28;1183;-70
2023/04/06 13:42:39;;;;;;;;;;;15.00;72.80;;;;;;5112067;28;1278;-70
2023/04/06 13:45:05;;;;;;;;;;;14.90;85.20;;;;;;5112160;28;1568;-70
2023/04/06 13:47:31;;;;;;;;;;;14.60;83.50;;;;;;5126379;27;2000;-70
2023/04/06 13:49:57;;;;;;;;;;;14.80;82.20;;;;;;5126381;27;1163;-70
2023/04/06 13:52:22;;;;;;;;;;;14.70;80.70;;;;;;5112238;28;1145;-70
2023/04/06 13:54:49;;;;;;;;;;;14.80;80.00;;;;;;5111380;28;990;-70
2023/04/06 13:57:15;;;;;;;;;;;14.70;79.20;;;;;;5112230;28;1143;-70
2023/04/06 13:59:40;;;;;;;;;;;14.90;81.30;;;;;;5111689;28;1158;-70
2023/04/06 14:02:07;;;;;;;;;;;14.40;78.50;;;;;;5092566;28;1628;-70
2023/04/06 14:04:34;;;;;;;;;;;14.50;76.10;;;;;;5098107;28;1232;-70
2023/04/06 14:07:00;;;;;;;;;;;14.50;68.90;;;;;;5111041;28;1983;-70
2023/04/06 14:09:26;;;;;;;;;;;15.10;70.40;;;;;;5111947;28;1237;-70
2023/04/06 14:11:52;;;;;;;;;;;14.30;69.80;;;;;;5111626;28;1159;-70
2023/04/06 14:14:17;;;;;;;;;;;14.40;68.40;;;;;;5097541;28;1152;-70
2023/04/06 14:16:44;;;;;;;;;;;14.30;67.10;;;;;;5093122;28;1101;-70
2023/04/06 14:19:12;;;;;;;;;;;14.40;64.70;;;;;;5111224;28;1124;-70
2023/04/06 14:21:39;;;;;;;;;;;14.20;67.50;;;;;;5111012;28;1120;-70
2023/04/06 14:24:05;;;;;;;;;;;14.20;67.20;;;;;;5093336;28;1097;-70
2023/04/06 14:26:31;;;;;;;;;;;14.40;66.70;;;;;;5110823;28;1130;-70
2023/04/06 14:28:58;;;;;;;;;;;14.20;66.40;;;;;;5110778;28;1964;-70
2023/04/06 14:31:24;;;;;;;;;;;14.10;68.60;;;;;;5093054;28;1172;-70
2023/04/06 14:33:50;;;;;;;;;;;14.10;68.40;;;;;;5110816;28;1025;-71
2023/04/06 14:36:15;;;;;;;;;;;13.80;92.00;;;;;;5110320;27;1092;-70
2023/04/06 14:38:43;;;;;;;;;;;13.60;92.10;;;;;;5111919;27;1278;-70
2023/04/06 14:41:09;;;;;;;;;;;13.70;89.60;;;;;;5110518;27;1251;-70
2023/04/06 14:43:34;;;;;;;;;;;13.70;85.70;;;;;;5111111;27;1278;-70
2023/04/06 14:46:00;;;;;;;;;;;13.30;79.70;;;;;;5100354;27;1653;-70
2023/04/06 14:48:26;;;;;;;;;;;13.60;79.20;;;;;;5131334;27;1980;-70
2023/04/06 14:50:53;;;;;;;;;;;13.40;75.70;;;;;;5112068;27;1143;-71